<?xml version="1.0" encoding="UTF-8" standalone="no" ?>
<gpx xmlns="http://www.topografix.com/GPX/1/1" xmlns:xsi="http://www.w3.org/2001/XMLSchema-instance" xsi:schemaLocation="http://www.topografix.com/GPX/1/1 http://www.topografix.com/GPX/1/1/gpx.xsd" version="1.1" creator="VisuGPX - https://www.visugpx.com">
  <metadata>
    <name>27_02_soirée_couscous_ASUL </name>
    <desc><![CDATA[Essai montre gps 500 Hike, à l\'aller et en voiture via TEO...]]></desc>
  </metadata>
  <trk>
    <name><![CDATA[27_02_soirée_couscous_ASUL _1]]></name>
    <trkseg>
      <trkpt lat="45.79848" lon="4.80489">
        <ele>285</ele>
        <time>2014-02-27T18:08:11.1Z</time>
      </trkpt>
      <trkpt lat="45.79848" lon="4.80489">
        <ele>285</ele>
        <time>2014-02-27T18:08:13.1Z</time>
      </trkpt>
      <trkpt lat="45.79849" lon="4.8049">
        <ele>284</ele>
        <time>2014-02-27T18:08:16.1Z</time>
      </trkpt>
      <trkpt lat="45.79849" lon="4.80491">
        <ele>284</ele>
        <time>2014-02-27T18:08:19.1Z</time>
      </trkpt>
      <trkpt lat="45.7985" lon="4.80491">
        <ele>284</ele>
        <time>2014-02-27T18:08:22.1Z</time>
      </trkpt>
      <trkpt lat="45.7985" lon="4.80491">
        <ele>284</ele>
        <time>2014-02-27T18:08:25.1Z</time>
      </trkpt>
      <trkpt lat="45.7985" lon="4.80491">
        <ele>284</ele>
        <time>2014-02-27T18:08:27.1Z</time>
      </trkpt>
      <trkpt lat="45.7985" lon="4.80491">
        <ele>284</ele>
        <time>2014-02-27T18:08:30.1Z</time>
      </trkpt>
      <trkpt lat="45.79851" lon="4.80491">
        <ele>284</ele>
        <time>2014-02-27T18:08:33.1Z</time>
      </trkpt>
      <trkpt lat="45.79852" lon="4.80493">
        <ele>284</ele>
        <time>2014-02-27T18:08:35.1Z</time>
      </trkpt>
      <trkpt lat="45.79851" lon="4.80493">
        <ele>284</ele>
        <time>2014-02-27T18:08:38.1Z</time>
      </trkpt>
      <trkpt lat="45.79849" lon="4.80494">
        <ele>284</ele>
        <time>2014-02-27T18:08:41.1Z</time>
      </trkpt>
      <trkpt lat="45.79848" lon="4.80493">
        <ele>284</ele>
        <time>2014-02-27T18:08:44.1Z</time>
      </trkpt>
      <trkpt lat="45.79848" lon="4.80495">
        <ele>284</ele>
        <time>2014-02-27T18:08:46.1Z</time>
      </trkpt>
      <trkpt lat="45.79848" lon="4.80496">
        <ele>284</ele>
        <time>2014-02-27T18:08:49.1Z</time>
      </trkpt>
      <trkpt lat="45.79848" lon="4.80496">
        <ele>285</ele>
        <time>2014-02-27T18:08:52.1Z</time>
      </trkpt>
      <trkpt lat="45.79848" lon="4.80497">
        <ele>285</ele>
        <time>2014-02-27T18:08:54.1Z</time>
      </trkpt>
      <trkpt lat="45.79848" lon="4.80498">
        <ele>285</ele>
        <time>2014-02-27T18:08:57.1Z</time>
      </trkpt>
      <trkpt lat="45.79845" lon="4.80499">
        <ele>284</ele>
        <time>2014-02-27T18:09:00.1Z</time>
      </trkpt>
      <trkpt lat="45.79838" lon="4.80502">
        <ele>284</ele>
        <time>2014-02-27T18:09:02.1Z</time>
      </trkpt>
      <trkpt lat="45.79825" lon="4.80506">
        <ele>284</ele>
        <time>2014-02-27T18:09:05.1Z</time>
      </trkpt>
      <trkpt lat="45.79811" lon="4.80511">
        <ele>283</ele>
        <time>2014-02-27T18:09:08.1Z</time>
      </trkpt>
      <trkpt lat="45.79802" lon="4.80513">
        <ele>283</ele>
        <time>2014-02-27T18:09:10.1Z</time>
      </trkpt>
      <trkpt lat="45.79793" lon="4.8051">
        <ele>283</ele>
        <time>2014-02-27T18:09:13.1Z</time>
      </trkpt>
      <trkpt lat="45.7979" lon="4.80499">
        <ele>283</ele>
        <time>2014-02-27T18:09:16.1Z</time>
      </trkpt>
      <trkpt lat="45.7979" lon="4.80484">
        <ele>282</ele>
        <time>2014-02-27T18:09:19.1Z</time>
      </trkpt>
      <trkpt lat="45.79794" lon="4.80464">
        <ele>282</ele>
        <time>2014-02-27T18:09:22.1Z</time>
      </trkpt>
      <trkpt lat="45.79795" lon="4.80451">
        <ele>282</ele>
        <time>2014-02-27T18:09:24.1Z</time>
      </trkpt>
      <trkpt lat="45.79798" lon="4.80427">
        <ele>281</ele>
        <time>2014-02-27T18:09:27.1Z</time>
      </trkpt>
      <trkpt lat="45.798" lon="4.80412">
        <ele>281</ele>
        <time>2014-02-27T18:09:29.1Z</time>
      </trkpt>
      <trkpt lat="45.79804" lon="4.80396">
        <ele>280</ele>
        <time>2014-02-27T18:09:32.1Z</time>
      </trkpt>
      <trkpt lat="45.79807" lon="4.80392">
        <ele>279</ele>
        <time>2014-02-27T18:09:34.1Z</time>
      </trkpt>
      <trkpt lat="45.79814" lon="4.80389">
        <ele>278</ele>
        <time>2014-02-27T18:09:37.1Z</time>
      </trkpt>
      <trkpt lat="45.79822" lon="4.80386">
        <ele>278</ele>
        <time>2014-02-27T18:09:39.1Z</time>
      </trkpt>
      <trkpt lat="45.79829" lon="4.80377">
        <ele>279</ele>
        <time>2014-02-27T18:09:41.1Z</time>
      </trkpt>
      <trkpt lat="45.79826" lon="4.80361">
        <ele>279</ele>
        <time>2014-02-27T18:09:44.1Z</time>
      </trkpt>
      <trkpt lat="45.7981" lon="4.80357">
        <ele>278</ele>
        <time>2014-02-27T18:09:47.1Z</time>
      </trkpt>
      <trkpt lat="45.79798" lon="4.80353">
        <ele>278</ele>
        <time>2014-02-27T18:09:49.1Z</time>
      </trkpt>
      <trkpt lat="45.79777" lon="4.80345">
        <ele>277</ele>
        <time>2014-02-27T18:09:52.1Z</time>
      </trkpt>
      <trkpt lat="45.7976" lon="4.80345">
        <ele>276</ele>
        <time>2014-02-27T18:09:54.1Z</time>
      </trkpt>
      <trkpt lat="45.79734" lon="4.80358">
        <ele>275</ele>
        <time>2014-02-27T18:09:57.1Z</time>
      </trkpt>
      <trkpt lat="45.79706" lon="4.80375">
        <ele>273</ele>
        <time>2014-02-27T18:10:00.1Z</time>
      </trkpt>
      <trkpt lat="45.79678" lon="4.80395">
        <ele>270</ele>
        <time>2014-02-27T18:10:03.1Z</time>
      </trkpt>
      <trkpt lat="45.79659" lon="4.80405">
        <ele>270</ele>
        <time>2014-02-27T18:10:05.1Z</time>
      </trkpt>
      <trkpt lat="45.79637" lon="4.8041">
        <ele>268</ele>
        <time>2014-02-27T18:10:07.1Z</time>
      </trkpt>
      <trkpt lat="45.79607" lon="4.80412">
        <ele>266</ele>
        <time>2014-02-27T18:10:10.1Z</time>
      </trkpt>
      <trkpt lat="45.79574" lon="4.8041">
        <ele>263</ele>
        <time>2014-02-27T18:10:13.1Z</time>
      </trkpt>
      <trkpt lat="45.7955" lon="4.80412">
        <ele>262</ele>
        <time>2014-02-27T18:10:15.1Z</time>
      </trkpt>
      <trkpt lat="45.79512" lon="4.80418">
        <ele>260</ele>
        <time>2014-02-27T18:10:18.1Z</time>
      </trkpt>
      <trkpt lat="45.79488" lon="4.80423">
        <ele>258</ele>
        <time>2014-02-27T18:10:20.1Z</time>
      </trkpt>
      <trkpt lat="45.7945" lon="4.8043">
        <ele>255</ele>
        <time>2014-02-27T18:10:23.1Z</time>
      </trkpt>
      <trkpt lat="45.79427" lon="4.80435">
        <ele>253</ele>
        <time>2014-02-27T18:10:25.1Z</time>
      </trkpt>
      <trkpt lat="45.7939" lon="4.80435">
        <ele>250</ele>
        <time>2014-02-27T18:10:28.1Z</time>
      </trkpt>
      <trkpt lat="45.79367" lon="4.80427">
        <ele>248</ele>
        <time>2014-02-27T18:10:30.1Z</time>
      </trkpt>
      <trkpt lat="45.79346" lon="4.80413">
        <ele>246</ele>
        <time>2014-02-27T18:10:32.1Z</time>
      </trkpt>
      <trkpt lat="45.79316" lon="4.80382">
        <ele>244</ele>
        <time>2014-02-27T18:10:35.1Z</time>
      </trkpt>
      <trkpt lat="45.79296" lon="4.80361">
        <ele>243</ele>
        <time>2014-02-27T18:10:37.1Z</time>
      </trkpt>
      <trkpt lat="45.79278" lon="4.80344">
        <ele>241</ele>
        <time>2014-02-27T18:10:39.1Z</time>
      </trkpt>
      <trkpt lat="45.79251" lon="4.80336">
        <ele>239</ele>
        <time>2014-02-27T18:10:42.1Z</time>
      </trkpt>
      <trkpt lat="45.79233" lon="4.80346">
        <ele>237</ele>
        <time>2014-02-27T18:10:44.1Z</time>
      </trkpt>
      <trkpt lat="45.79218" lon="4.80365">
        <ele>236</ele>
        <time>2014-02-27T18:10:46.1Z</time>
      </trkpt>
      <trkpt lat="45.79201" lon="4.80399">
        <ele>234</ele>
        <time>2014-02-27T18:10:49.1Z</time>
      </trkpt>
      <trkpt lat="45.79187" lon="4.8042">
        <ele>233</ele>
        <time>2014-02-27T18:10:51.1Z</time>
      </trkpt>
      <trkpt lat="45.79169" lon="4.80436">
        <ele>231</ele>
        <time>2014-02-27T18:10:53.1Z</time>
      </trkpt>
      <trkpt lat="45.79147" lon="4.80447">
        <ele>230</ele>
        <time>2014-02-27T18:10:55.1Z</time>
      </trkpt>
      <trkpt lat="45.79118" lon="4.80471">
        <ele>228</ele>
        <time>2014-02-27T18:10:58.1Z</time>
      </trkpt>
      <trkpt lat="45.79094" lon="4.80505">
        <ele>226</ele>
        <time>2014-02-27T18:11:01.1Z</time>
      </trkpt>
      <trkpt lat="45.79078" lon="4.80527">
        <ele>224</ele>
        <time>2014-02-27T18:11:03.1Z</time>
      </trkpt>
      <trkpt lat="45.79061" lon="4.80546">
        <ele>222</ele>
        <time>2014-02-27T18:11:05.1Z</time>
      </trkpt>
      <trkpt lat="45.79046" lon="4.80566">
        <ele>220</ele>
        <time>2014-02-27T18:11:07.1Z</time>
      </trkpt>
      <trkpt lat="45.79036" lon="4.80589">
        <ele>218</ele>
        <time>2014-02-27T18:11:09.1Z</time>
      </trkpt>
      <trkpt lat="45.79025" lon="4.80628">
        <ele>216</ele>
        <time>2014-02-27T18:11:12.1Z</time>
      </trkpt>
      <trkpt lat="45.79013" lon="4.8065">
        <ele>215</ele>
        <time>2014-02-27T18:11:14.1Z</time>
      </trkpt>
      <trkpt lat="45.79006" lon="4.80674">
        <ele>214</ele>
        <time>2014-02-27T18:11:16.1Z</time>
      </trkpt>
      <trkpt lat="45.79009" lon="4.80713">
        <ele>212</ele>
        <time>2014-02-27T18:11:19.1Z</time>
      </trkpt>
      <trkpt lat="45.79023" lon="4.8073">
        <ele>211</ele>
        <time>2014-02-27T18:11:21.1Z</time>
      </trkpt>
      <trkpt lat="45.79058" lon="4.80744">
        <ele>209</ele>
        <time>2014-02-27T18:11:25.1Z</time>
      </trkpt>
      <trkpt lat="45.79076" lon="4.8075">
        <ele>208</ele>
        <time>2014-02-27T18:11:27.1Z</time>
      </trkpt>
      <trkpt lat="45.79098" lon="4.80773">
        <ele>206</ele>
        <time>2014-02-27T18:11:30.1Z</time>
      </trkpt>
      <trkpt lat="45.79115" lon="4.80791">
        <ele>204</ele>
        <time>2014-02-27T18:11:32.1Z</time>
      </trkpt>
      <trkpt lat="45.79137" lon="4.80812">
        <ele>203</ele>
        <time>2014-02-27T18:11:35.1Z</time>
      </trkpt>
      <trkpt lat="45.79156" lon="4.80832">
        <ele>201</ele>
        <time>2014-02-27T18:11:38.1Z</time>
      </trkpt>
      <trkpt lat="45.79171" lon="4.80852">
        <ele>199</ele>
        <time>2014-02-27T18:11:41.1Z</time>
      </trkpt>
      <trkpt lat="45.79076" lon="4.80845">
        <ele>192</ele>
        <time>2014-02-27T18:11:56.1Z</time>
      </trkpt>
      <trkpt lat="45.79053" lon="4.80833">
        <ele>191</ele>
        <time>2014-02-27T18:11:58.1Z</time>
      </trkpt>
      <trkpt lat="45.7903" lon="4.80822">
        <ele>191</ele>
        <time>2014-02-27T18:12:00.1Z</time>
      </trkpt>
      <trkpt lat="45.79008" lon="4.80814">
        <ele>190</ele>
        <time>2014-02-27T18:12:02.1Z</time>
      </trkpt>
      <trkpt lat="45.78978" lon="4.80804">
        <ele>189</ele>
        <time>2014-02-27T18:12:05.1Z</time>
      </trkpt>
      <trkpt lat="45.78962" lon="4.80799">
        <ele>188</ele>
        <time>2014-02-27T18:12:07.1Z</time>
      </trkpt>
      <trkpt lat="45.78939" lon="4.80791">
        <ele>187</ele>
        <time>2014-02-27T18:12:10.1Z</time>
      </trkpt>
      <trkpt lat="45.78924" lon="4.80786">
        <ele>187</ele>
        <time>2014-02-27T18:12:12.1Z</time>
      </trkpt>
      <trkpt lat="45.7891" lon="4.80779">
        <ele>186</ele>
        <time>2014-02-27T18:12:14.1Z</time>
      </trkpt>
      <trkpt lat="45.7889" lon="4.80778">
        <ele>185</ele>
        <time>2014-02-27T18:12:17.1Z</time>
      </trkpt>
      <trkpt lat="45.78869" lon="4.80784">
        <ele>184</ele>
        <time>2014-02-27T18:12:20.1Z</time>
      </trkpt>
      <trkpt lat="45.78848" lon="4.80802">
        <ele>184</ele>
        <time>2014-02-27T18:12:23.1Z</time>
      </trkpt>
      <trkpt lat="45.78833" lon="4.80823">
        <ele>183</ele>
        <time>2014-02-27T18:12:26.1Z</time>
      </trkpt>
      <trkpt lat="45.78824" lon="4.80837">
        <ele>182</ele>
        <time>2014-02-27T18:12:28.1Z</time>
      </trkpt>
      <trkpt lat="45.78816" lon="4.80851">
        <ele>182</ele>
        <time>2014-02-27T18:12:31.1Z</time>
      </trkpt>
      <trkpt lat="45.78816" lon="4.80853">
        <ele>181</ele>
        <time>2014-02-27T18:12:34.1Z</time>
      </trkpt>
      <trkpt lat="45.78815" lon="4.80855">
        <ele>181</ele>
        <time>2014-02-27T18:12:37.1Z</time>
      </trkpt>
      <trkpt lat="45.78815" lon="4.80856">
        <ele>181</ele>
        <time>2014-02-27T18:12:39.1Z</time>
      </trkpt>
      <trkpt lat="45.78814" lon="4.80856">
        <ele>181</ele>
        <time>2014-02-27T18:12:41.1Z</time>
      </trkpt>
      <trkpt lat="45.78813" lon="4.80856">
        <ele>181</ele>
        <time>2014-02-27T18:12:44.1Z</time>
      </trkpt>
      <trkpt lat="45.78812" lon="4.80856">
        <ele>181</ele>
        <time>2014-02-27T18:12:47.1Z</time>
      </trkpt>
      <trkpt lat="45.78811" lon="4.80856">
        <ele>181</ele>
        <time>2014-02-27T18:12:50.1Z</time>
      </trkpt>
      <trkpt lat="45.78811" lon="4.80856">
        <ele>180</ele>
        <time>2014-02-27T18:12:52.1Z</time>
      </trkpt>
      <trkpt lat="45.7881" lon="4.80855">
        <ele>180</ele>
        <time>2014-02-27T18:12:54.1Z</time>
      </trkpt>
      <trkpt lat="45.78809" lon="4.80855">
        <ele>180</ele>
        <time>2014-02-27T18:12:57.1Z</time>
      </trkpt>
      <trkpt lat="45.78808" lon="4.80856">
        <ele>180</ele>
        <time>2014-02-27T18:12:59.1Z</time>
      </trkpt>
      <trkpt lat="45.78807" lon="4.80856">
        <ele>181</ele>
        <time>2014-02-27T18:13:02.1Z</time>
      </trkpt>
      <trkpt lat="45.78806" lon="4.80855">
        <ele>181</ele>
        <time>2014-02-27T18:13:04.1Z</time>
      </trkpt>
      <trkpt lat="45.78806" lon="4.80854">
        <ele>181</ele>
        <time>2014-02-27T18:13:07.1Z</time>
      </trkpt>
      <trkpt lat="45.78806" lon="4.80855">
        <ele>181</ele>
        <time>2014-02-27T18:13:10.1Z</time>
      </trkpt>
      <trkpt lat="45.78802" lon="4.8086">
        <ele>181</ele>
        <time>2014-02-27T18:13:12.1Z</time>
      </trkpt>
      <trkpt lat="45.78798" lon="4.80868">
        <ele>181</ele>
        <time>2014-02-27T18:13:15.1Z</time>
      </trkpt>
      <trkpt lat="45.78797" lon="4.80869">
        <ele>180</ele>
        <time>2014-02-27T18:13:17.1Z</time>
      </trkpt>
      <trkpt lat="45.78798" lon="4.80867">
        <ele>180</ele>
        <time>2014-02-27T18:13:20.1Z</time>
      </trkpt>
      <trkpt lat="45.78798" lon="4.80866">
        <ele>180</ele>
        <time>2014-02-27T18:13:23.1Z</time>
      </trkpt>
      <trkpt lat="45.78797" lon="4.80867">
        <ele>180</ele>
        <time>2014-02-27T18:13:25.1Z</time>
      </trkpt>
      <trkpt lat="45.78796" lon="4.80866">
        <ele>180</ele>
        <time>2014-02-27T18:13:28.1Z</time>
      </trkpt>
      <trkpt lat="45.78799" lon="4.8087">
        <ele>180</ele>
        <time>2014-02-27T18:13:31.1Z</time>
      </trkpt>
      <trkpt lat="45.788" lon="4.80872">
        <ele>180</ele>
        <time>2014-02-27T18:13:34.1Z</time>
      </trkpt>
      <trkpt lat="45.78802" lon="4.80872">
        <ele>181</ele>
        <time>2014-02-27T18:13:37.1Z</time>
      </trkpt>
      <trkpt lat="45.78802" lon="4.80872">
        <ele>181</ele>
        <time>2014-02-27T18:13:39.1Z</time>
      </trkpt>
      <trkpt lat="45.78804" lon="4.80873">
        <ele>181</ele>
        <time>2014-02-27T18:13:42.1Z</time>
      </trkpt>
      <trkpt lat="45.78805" lon="4.80873">
        <ele>181</ele>
        <time>2014-02-27T18:13:45.1Z</time>
      </trkpt>
      <trkpt lat="45.78803" lon="4.80874">
        <ele>181</ele>
        <time>2014-02-27T18:13:48.1Z</time>
      </trkpt>
      <trkpt lat="45.78796" lon="4.80883">
        <ele>181</ele>
        <time>2014-02-27T18:13:51.1Z</time>
      </trkpt>
      <trkpt lat="45.78791" lon="4.80901">
        <ele>180</ele>
        <time>2014-02-27T18:13:54.1Z</time>
      </trkpt>
      <trkpt lat="45.78788" lon="4.8092">
        <ele>180</ele>
        <time>2014-02-27T18:13:56.1Z</time>
      </trkpt>
      <trkpt lat="45.78786" lon="4.80943">
        <ele>180</ele>
        <time>2014-02-27T18:13:58.1Z</time>
      </trkpt>
      <trkpt lat="45.78783" lon="4.80982">
        <ele>179</ele>
        <time>2014-02-27T18:14:01.1Z</time>
      </trkpt>
      <trkpt lat="45.78787" lon="4.81009">
        <ele>180</ele>
        <time>2014-02-27T18:14:03.1Z</time>
      </trkpt>
      <trkpt lat="45.78802" lon="4.81043">
        <ele>180</ele>
        <time>2014-02-27T18:14:06.1Z</time>
      </trkpt>
      <trkpt lat="45.78818" lon="4.81062">
        <ele>180</ele>
        <time>2014-02-27T18:14:08.1Z</time>
      </trkpt>
      <trkpt lat="45.78838" lon="4.81078">
        <ele>181</ele>
        <time>2014-02-27T18:14:10.1Z</time>
      </trkpt>
      <trkpt lat="45.78868" lon="4.81105">
        <ele>182</ele>
        <time>2014-02-27T18:14:13.1Z</time>
      </trkpt>
      <trkpt lat="45.78887" lon="4.81125">
        <ele>182</ele>
        <time>2014-02-27T18:14:15.1Z</time>
      </trkpt>
      <trkpt lat="45.78914" lon="4.81159">
        <ele>181</ele>
        <time>2014-02-27T18:14:18.1Z</time>
      </trkpt>
      <trkpt lat="45.79049" lon="4.81325">
        <ele>170</ele>
        <time>2014-02-27T18:14:33.1Z</time>
      </trkpt>
      <trkpt lat="45.79069" lon="4.81357">
        <ele>170</ele>
        <time>2014-02-27T18:14:36.1Z</time>
      </trkpt>
      <trkpt lat="45.79092" lon="4.81396">
        <ele>169</ele>
        <time>2014-02-27T18:14:39.1Z</time>
      </trkpt>
      <trkpt lat="45.7911" lon="4.81424">
        <ele>168</ele>
        <time>2014-02-27T18:14:41.1Z</time>
      </trkpt>
      <trkpt lat="45.78809" lon="4.86175">
        <ele>179</ele>
        <time>2014-02-27T18:17:48.1Z</time>
      </trkpt>
      <trkpt lat="45.78812" lon="4.86228">
        <ele>180</ele>
        <time>2014-02-27T18:17:50.1Z</time>
      </trkpt>
      <trkpt lat="45.78818" lon="4.86283">
        <ele>181</ele>
        <time>2014-02-27T18:17:52.1Z</time>
      </trkpt>
      <trkpt lat="45.78832" lon="4.86361">
        <ele>181</ele>
        <time>2014-02-27T18:17:55.1Z</time>
      </trkpt>
      <trkpt lat="45.78851" lon="4.86432">
        <ele>181</ele>
        <time>2014-02-27T18:17:58.1Z</time>
      </trkpt>
      <trkpt lat="45.78873" lon="4.86494">
        <ele>181</ele>
        <time>2014-02-27T18:18:01.1Z</time>
      </trkpt>
      <trkpt lat="45.78886" lon="4.86527">
        <ele>181</ele>
        <time>2014-02-27T18:18:03.1Z</time>
      </trkpt>
      <trkpt lat="45.78898" lon="4.86553">
        <ele>181</ele>
        <time>2014-02-27T18:18:05.1Z</time>
      </trkpt>
      <trkpt lat="45.78908" lon="4.86573">
        <ele>180</ele>
        <time>2014-02-27T18:18:07.1Z</time>
      </trkpt>
      <trkpt lat="45.78915" lon="4.86588">
        <ele>180</ele>
        <time>2014-02-27T18:18:10.1Z</time>
      </trkpt>
      <trkpt lat="45.78917" lon="4.86592">
        <ele>179</ele>
        <time>2014-02-27T18:18:13.1Z</time>
      </trkpt>
      <trkpt lat="45.7892" lon="4.86599">
        <ele>179</ele>
        <time>2014-02-27T18:18:15.1Z</time>
      </trkpt>
      <trkpt lat="45.78927" lon="4.8661">
        <ele>178</ele>
        <time>2014-02-27T18:18:18.1Z</time>
      </trkpt>
      <trkpt lat="45.7893" lon="4.86616">
        <ele>179</ele>
        <time>2014-02-27T18:18:20.1Z</time>
      </trkpt>
      <trkpt lat="45.78932" lon="4.86621">
        <ele>179</ele>
        <time>2014-02-27T18:18:23.1Z</time>
      </trkpt>
      <trkpt lat="45.78933" lon="4.86625">
        <ele>179</ele>
        <time>2014-02-27T18:18:25.1Z</time>
      </trkpt>
      <trkpt lat="45.78938" lon="4.86635">
        <ele>179</ele>
        <time>2014-02-27T18:18:27.1Z</time>
      </trkpt>
      <trkpt lat="45.78949" lon="4.86661">
        <ele>179</ele>
        <time>2014-02-27T18:18:30.1Z</time>
      </trkpt>
      <trkpt lat="45.7896" lon="4.86683">
        <ele>179</ele>
        <time>2014-02-27T18:18:32.1Z</time>
      </trkpt>
      <trkpt lat="45.78979" lon="4.86722">
        <ele>179</ele>
        <time>2014-02-27T18:18:35.1Z</time>
      </trkpt>
      <trkpt lat="45.79003" lon="4.86764">
        <ele>179</ele>
        <time>2014-02-27T18:18:38.1Z</time>
      </trkpt>
      <trkpt lat="45.79033" lon="4.86809">
        <ele>180</ele>
        <time>2014-02-27T18:18:41.1Z</time>
      </trkpt>
      <trkpt lat="45.79066" lon="4.86859">
        <ele>180</ele>
        <time>2014-02-27T18:18:44.1Z</time>
      </trkpt>
      <trkpt lat="45.79089" lon="4.86893">
        <ele>180</ele>
        <time>2014-02-27T18:18:46.1Z</time>
      </trkpt>
      <trkpt lat="45.79126" lon="4.86948">
        <ele>180</ele>
        <time>2014-02-27T18:18:49.1Z</time>
      </trkpt>
      <trkpt lat="45.79158" lon="4.87014">
        <ele>180</ele>
        <time>2014-02-27T18:18:52.1Z</time>
      </trkpt>
      <trkpt lat="45.79178" lon="4.87064">
        <ele>181</ele>
        <time>2014-02-27T18:18:54.1Z</time>
      </trkpt>
      <trkpt lat="45.79195" lon="4.87114">
        <ele>181</ele>
        <time>2014-02-27T18:18:56.1Z</time>
      </trkpt>
      <trkpt lat="45.79221" lon="4.87189">
        <ele>182</ele>
        <time>2014-02-27T18:18:59.1Z</time>
      </trkpt>
      <trkpt lat="45.79248" lon="4.87266">
        <ele>182</ele>
        <time>2014-02-27T18:19:02.1Z</time>
      </trkpt>
      <trkpt lat="45.79274" lon="4.87343">
        <ele>183</ele>
        <time>2014-02-27T18:19:05.1Z</time>
      </trkpt>
      <trkpt lat="45.79292" lon="4.87395">
        <ele>184</ele>
        <time>2014-02-27T18:19:07.1Z</time>
      </trkpt>
      <trkpt lat="45.79318" lon="4.87472">
        <ele>185</ele>
        <time>2014-02-27T18:19:10.1Z</time>
      </trkpt>
      <trkpt lat="45.79341" lon="4.87553">
        <ele>186</ele>
        <time>2014-02-27T18:19:13.1Z</time>
      </trkpt>
      <trkpt lat="45.79356" lon="4.87639">
        <ele>187</ele>
        <time>2014-02-27T18:19:16.1Z</time>
      </trkpt>
      <trkpt lat="45.7936" lon="4.87698">
        <ele>187</ele>
        <time>2014-02-27T18:19:18.1Z</time>
      </trkpt>
      <trkpt lat="45.7936" lon="4.87788">
        <ele>189</ele>
        <time>2014-02-27T18:19:21.1Z</time>
      </trkpt>
      <trkpt lat="45.79353" lon="4.87848">
        <ele>190</ele>
        <time>2014-02-27T18:19:23.1Z</time>
      </trkpt>
      <trkpt lat="45.79336" lon="4.87936">
        <ele>190</ele>
        <time>2014-02-27T18:19:26.1Z</time>
      </trkpt>
      <trkpt lat="45.79319" lon="4.87993">
        <ele>190</ele>
        <time>2014-02-27T18:19:28.1Z</time>
      </trkpt>
      <trkpt lat="45.79286" lon="4.88073">
        <ele>189</ele>
        <time>2014-02-27T18:19:31.1Z</time>
      </trkpt>
      <trkpt lat="45.79259" lon="4.88123">
        <ele>189</ele>
        <time>2014-02-27T18:19:33.1Z</time>
      </trkpt>
      <trkpt lat="45.79231" lon="4.88171">
        <ele>188</ele>
        <time>2014-02-27T18:19:35.1Z</time>
      </trkpt>
      <trkpt lat="45.79187" lon="4.88241">
        <ele>188</ele>
        <time>2014-02-27T18:19:38.1Z</time>
      </trkpt>
      <trkpt lat="45.79139" lon="4.88308">
        <ele>187</ele>
        <time>2014-02-27T18:19:41.1Z</time>
      </trkpt>
      <trkpt lat="45.79088" lon="4.88373">
        <ele>186</ele>
        <time>2014-02-27T18:19:44.1Z</time>
      </trkpt>
      <trkpt lat="45.79053" lon="4.88414">
        <ele>185</ele>
        <time>2014-02-27T18:19:46.1Z</time>
      </trkpt>
      <trkpt lat="45.78999" lon="4.88473">
        <ele>185</ele>
        <time>2014-02-27T18:19:49.1Z</time>
      </trkpt>
      <trkpt lat="45.78964" lon="4.88512">
        <ele>184</ele>
        <time>2014-02-27T18:19:51.1Z</time>
      </trkpt>
      <trkpt lat="45.7891" lon="4.88571">
        <ele>184</ele>
        <time>2014-02-27T18:19:54.1Z</time>
      </trkpt>
      <trkpt lat="45.78874" lon="4.88611">
        <ele>184</ele>
        <time>2014-02-27T18:19:56.1Z</time>
      </trkpt>
      <trkpt lat="45.78838" lon="4.88649">
        <ele>184</ele>
        <time>2014-02-27T18:19:58.1Z</time>
      </trkpt>
      <trkpt lat="45.78788" lon="4.88702">
        <ele>184</ele>
        <time>2014-02-27T18:20:01.1Z</time>
      </trkpt>
      <trkpt lat="45.78757" lon="4.88734">
        <ele>183</ele>
        <time>2014-02-27T18:20:03.1Z</time>
      </trkpt>
      <trkpt lat="45.78716" lon="4.88778">
        <ele>183</ele>
        <time>2014-02-27T18:20:06.1Z</time>
      </trkpt>
      <trkpt lat="45.7869" lon="4.88808">
        <ele>182</ele>
        <time>2014-02-27T18:20:08.1Z</time>
      </trkpt>
      <trkpt lat="45.78662" lon="4.88838">
        <ele>182</ele>
        <time>2014-02-27T18:20:10.1Z</time>
      </trkpt>
      <trkpt lat="45.78621" lon="4.88882">
        <ele>182</ele>
        <time>2014-02-27T18:20:13.1Z</time>
      </trkpt>
      <trkpt lat="45.78595" lon="4.88912">
        <ele>182</ele>
        <time>2014-02-27T18:20:15.1Z</time>
      </trkpt>
      <trkpt lat="45.78568" lon="4.88941">
        <ele>183</ele>
        <time>2014-02-27T18:20:17.1Z</time>
      </trkpt>
      <trkpt lat="45.78527" lon="4.88985">
        <ele>183</ele>
        <time>2014-02-27T18:20:20.1Z</time>
      </trkpt>
      <trkpt lat="45.78486" lon="4.8903">
        <ele>184</ele>
        <time>2014-02-27T18:20:23.1Z</time>
      </trkpt>
      <trkpt lat="45.7846" lon="4.89056">
        <ele>184</ele>
        <time>2014-02-27T18:20:25.1Z</time>
      </trkpt>
      <trkpt lat="45.78421" lon="4.89097">
        <ele>185</ele>
        <time>2014-02-27T18:20:28.1Z</time>
      </trkpt>
      <trkpt lat="45.78393" lon="4.89122">
        <ele>186</ele>
        <time>2014-02-27T18:20:30.1Z</time>
      </trkpt>
      <trkpt lat="45.78363" lon="4.89147">
        <ele>188</ele>
        <time>2014-02-27T18:20:32.1Z</time>
      </trkpt>
      <trkpt lat="45.78318" lon="4.89184">
        <ele>189</ele>
        <time>2014-02-27T18:20:35.1Z</time>
      </trkpt>
      <trkpt lat="45.78286" lon="4.8921">
        <ele>190</ele>
        <time>2014-02-27T18:20:37.1Z</time>
      </trkpt>
      <trkpt lat="45.78237" lon="4.8925">
        <ele>191</ele>
        <time>2014-02-27T18:20:40.1Z</time>
      </trkpt>
      <trkpt lat="45.78203" lon="4.89279">
        <ele>190</ele>
        <time>2014-02-27T18:20:42.1Z</time>
      </trkpt>
      <trkpt lat="45.78168" lon="4.89307">
        <ele>190</ele>
        <time>2014-02-27T18:20:44.1Z</time>
      </trkpt>
      <trkpt lat="45.78115" lon="4.89353">
        <ele>188</ele>
        <time>2014-02-27T18:20:47.1Z</time>
      </trkpt>
      <trkpt lat="45.78079" lon="4.89383">
        <ele>187</ele>
        <time>2014-02-27T18:20:49.1Z</time>
      </trkpt>
      <trkpt lat="45.78026" lon="4.89426">
        <ele>186</ele>
        <time>2014-02-27T18:20:52.1Z</time>
      </trkpt>
      <trkpt lat="45.77991" lon="4.89453">
        <ele>186</ele>
        <time>2014-02-27T18:20:54.1Z</time>
      </trkpt>
      <trkpt lat="45.77956" lon="4.89481">
        <ele>186</ele>
        <time>2014-02-27T18:20:56.1Z</time>
      </trkpt>
      <trkpt lat="45.77902" lon="4.89525">
        <ele>186</ele>
        <time>2014-02-27T18:20:59.1Z</time>
      </trkpt>
      <trkpt lat="45.77845" lon="4.8957">
        <ele>186</ele>
        <time>2014-02-27T18:21:02.1Z</time>
      </trkpt>
      <trkpt lat="45.77806" lon="4.89602">
        <ele>186</ele>
        <time>2014-02-27T18:21:04.1Z</time>
      </trkpt>
      <trkpt lat="45.77766" lon="4.89635">
        <ele>187</ele>
        <time>2014-02-27T18:21:06.1Z</time>
      </trkpt>
      <trkpt lat="45.77707" lon="4.89684">
        <ele>187</ele>
        <time>2014-02-27T18:21:09.1Z</time>
      </trkpt>
      <trkpt lat="45.7765" lon="4.89731">
        <ele>187</ele>
        <time>2014-02-27T18:21:12.1Z</time>
      </trkpt>
      <trkpt lat="45.77596" lon="4.89776">
        <ele>187</ele>
        <time>2014-02-27T18:21:15.1Z</time>
      </trkpt>
      <trkpt lat="45.7754" lon="4.89821">
        <ele>186</ele>
        <time>2014-02-27T18:21:18.1Z</time>
      </trkpt>
      <trkpt lat="45.77486" lon="4.89863">
        <ele>185</ele>
        <time>2014-02-27T18:21:21.1Z</time>
      </trkpt>
      <trkpt lat="45.77452" lon="4.89891">
        <ele>185</ele>
        <time>2014-02-27T18:21:23.1Z</time>
      </trkpt>
      <trkpt lat="45.77403" lon="4.8993">
        <ele>185</ele>
        <time>2014-02-27T18:21:26.1Z</time>
      </trkpt>
      <trkpt lat="45.7737" lon="4.89957">
        <ele>185</ele>
        <time>2014-02-27T18:21:28.1Z</time>
      </trkpt>
      <trkpt lat="45.77323" lon="4.89996">
        <ele>184</ele>
        <time>2014-02-27T18:21:31.1Z</time>
      </trkpt>
      <trkpt lat="45.77273" lon="4.90036">
        <ele>185</ele>
        <time>2014-02-27T18:21:34.1Z</time>
      </trkpt>
      <trkpt lat="45.77239" lon="4.90065">
        <ele>185</ele>
        <time>2014-02-27T18:21:36.1Z</time>
      </trkpt>
      <trkpt lat="45.77203" lon="4.90095">
        <ele>185</ele>
        <time>2014-02-27T18:21:38.1Z</time>
      </trkpt>
      <trkpt lat="45.77148" lon="4.9014">
        <ele>185</ele>
        <time>2014-02-27T18:21:41.1Z</time>
      </trkpt>
      <trkpt lat="45.77113" lon="4.9017">
        <ele>185</ele>
        <time>2014-02-27T18:21:43.1Z</time>
      </trkpt>
      <trkpt lat="45.77078" lon="4.90199">
        <ele>184</ele>
        <time>2014-02-27T18:21:45.1Z</time>
      </trkpt>
      <trkpt lat="45.77027" lon="4.90242">
        <ele>184</ele>
        <time>2014-02-27T18:21:48.1Z</time>
      </trkpt>
      <trkpt lat="45.76978" lon="4.90282">
        <ele>184</ele>
        <time>2014-02-27T18:21:51.1Z</time>
      </trkpt>
      <trkpt lat="45.76932" lon="4.90319">
        <ele>185</ele>
        <time>2014-02-27T18:21:54.1Z</time>
      </trkpt>
      <trkpt lat="45.76903" lon="4.90343">
        <ele>185</ele>
        <time>2014-02-27T18:21:56.1Z</time>
      </trkpt>
      <trkpt lat="45.76863" lon="4.90378">
        <ele>185</ele>
        <time>2014-02-27T18:21:59.1Z</time>
      </trkpt>
      <trkpt lat="45.76839" lon="4.90397">
        <ele>184</ele>
        <time>2014-02-27T18:22:01.1Z</time>
      </trkpt>
      <trkpt lat="45.76807" lon="4.90404">
        <ele>183</ele>
        <time>2014-02-27T18:22:04.1Z</time>
      </trkpt>
      <trkpt lat="45.76791" lon="4.90389">
        <ele>182</ele>
        <time>2014-02-27T18:22:06.1Z</time>
      </trkpt>
      <trkpt lat="45.76779" lon="4.90371">
        <ele>182</ele>
        <time>2014-02-27T18:22:08.1Z</time>
      </trkpt>
      <trkpt lat="45.76753" lon="4.90359">
        <ele>182</ele>
        <time>2014-02-27T18:22:11.1Z</time>
      </trkpt>
      <trkpt lat="45.76732" lon="4.90366">
        <ele>182</ele>
        <time>2014-02-27T18:22:13.1Z</time>
      </trkpt>
      <trkpt lat="45.76709" lon="4.90378">
        <ele>183</ele>
        <time>2014-02-27T18:22:16.1Z</time>
      </trkpt>
      <trkpt lat="45.76693" lon="4.90372">
        <ele>184</ele>
        <time>2014-02-27T18:22:19.1Z</time>
      </trkpt>
      <trkpt lat="45.76684" lon="4.90359">
        <ele>183</ele>
        <time>2014-02-27T18:22:22.1Z</time>
      </trkpt>
      <trkpt lat="45.7668" lon="4.90351">
        <ele>182</ele>
        <time>2014-02-27T18:22:24.1Z</time>
      </trkpt>
      <trkpt lat="45.76679" lon="4.90345">
        <ele>182</ele>
        <time>2014-02-27T18:22:26.1Z</time>
      </trkpt>
      <trkpt lat="45.76678" lon="4.90343">
        <ele>182</ele>
        <time>2014-02-27T18:22:28.1Z</time>
      </trkpt>
      <trkpt lat="45.76678" lon="4.90342">
        <ele>182</ele>
        <time>2014-02-27T18:22:31.1Z</time>
      </trkpt>
      <trkpt lat="45.76679" lon="4.90341">
        <ele>182</ele>
        <time>2014-02-27T18:22:33.1Z</time>
      </trkpt>
      <trkpt lat="45.7668" lon="4.90341">
        <ele>182</ele>
        <time>2014-02-27T18:22:36.1Z</time>
      </trkpt>
      <trkpt lat="45.76681" lon="4.90342">
        <ele>182</ele>
        <time>2014-02-27T18:22:39.1Z</time>
      </trkpt>
      <trkpt lat="45.76681" lon="4.90342">
        <ele>182</ele>
        <time>2014-02-27T18:22:41.1Z</time>
      </trkpt>
      <trkpt lat="45.76681" lon="4.90342">
        <ele>182</ele>
        <time>2014-02-27T18:22:43.1Z</time>
      </trkpt>
      <trkpt lat="45.76679" lon="4.9034">
        <ele>182</ele>
        <time>2014-02-27T18:22:46.1Z</time>
      </trkpt>
      <trkpt lat="45.76677" lon="4.90336">
        <ele>182</ele>
        <time>2014-02-27T18:22:48.1Z</time>
      </trkpt>
      <trkpt lat="45.76673" lon="4.90324">
        <ele>182</ele>
        <time>2014-02-27T18:22:50.1Z</time>
      </trkpt>
      <trkpt lat="45.76667" lon="4.90299">
        <ele>182</ele>
        <time>2014-02-27T18:22:53.1Z</time>
      </trkpt>
      <trkpt lat="45.76661" lon="4.90278">
        <ele>182</ele>
        <time>2014-02-27T18:22:55.1Z</time>
      </trkpt>
      <trkpt lat="45.76654" lon="4.90255">
        <ele>182</ele>
        <time>2014-02-27T18:22:57.1Z</time>
      </trkpt>
      <trkpt lat="45.76646" lon="4.90231">
        <ele>182</ele>
        <time>2014-02-27T18:22:59.1Z</time>
      </trkpt>
      <trkpt lat="45.76632" lon="4.90196">
        <ele>183</ele>
        <time>2014-02-27T18:23:02.1Z</time>
      </trkpt>
      <trkpt lat="45.76622" lon="4.90174">
        <ele>183</ele>
        <time>2014-02-27T18:23:04.1Z</time>
      </trkpt>
      <trkpt lat="45.76613" lon="4.90154">
        <ele>183</ele>
        <time>2014-02-27T18:23:06.1Z</time>
      </trkpt>
      <trkpt lat="45.76602" lon="4.90135">
        <ele>184</ele>
        <time>2014-02-27T18:23:09.1Z</time>
      </trkpt>
      <trkpt lat="45.76595" lon="4.90124">
        <ele>184</ele>
        <time>2014-02-27T18:23:12.1Z</time>
      </trkpt>
      <trkpt lat="45.76591" lon="4.9012">
        <ele>184</ele>
        <time>2014-02-27T18:23:14.1Z</time>
      </trkpt>
      <trkpt lat="45.7659" lon="4.90119">
        <ele>184</ele>
        <time>2014-02-27T18:23:17.1Z</time>
      </trkpt>
      <trkpt lat="45.7659" lon="4.90119">
        <ele>184</ele>
        <time>2014-02-27T18:23:19.1Z</time>
      </trkpt>
      <trkpt lat="45.76589" lon="4.90119">
        <ele>185</ele>
        <time>2014-02-27T18:23:21.1Z</time>
      </trkpt>
      <trkpt lat="45.7658" lon="4.90112">
        <ele>185</ele>
        <time>2014-02-27T18:23:24.1Z</time>
      </trkpt>
      <trkpt lat="45.76574" lon="4.90111">
        <ele>185</ele>
        <time>2014-02-27T18:23:26.1Z</time>
      </trkpt>
      <trkpt lat="45.76567" lon="4.9011">
        <ele>185</ele>
        <time>2014-02-27T18:23:29.1Z</time>
      </trkpt>
      <trkpt lat="45.76562" lon="4.9011">
        <ele>185</ele>
        <time>2014-02-27T18:23:31.1Z</time>
      </trkpt>
      <trkpt lat="45.76554" lon="4.9011">
        <ele>185</ele>
        <time>2014-02-27T18:23:34.1Z</time>
      </trkpt>
      <trkpt lat="45.76547" lon="4.90111">
        <ele>185</ele>
        <time>2014-02-27T18:23:36.1Z</time>
      </trkpt>
      <trkpt lat="45.76532" lon="4.90112">
        <ele>186</ele>
        <time>2014-02-27T18:23:39.1Z</time>
      </trkpt>
      <trkpt lat="45.76523" lon="4.90114">
        <ele>186</ele>
        <time>2014-02-27T18:23:41.1Z</time>
      </trkpt>
      <trkpt lat="45.76515" lon="4.90116">
        <ele>186</ele>
        <time>2014-02-27T18:23:43.1Z</time>
      </trkpt>
      <trkpt lat="45.76509" lon="4.90117">
        <ele>187</ele>
        <time>2014-02-27T18:23:45.1Z</time>
      </trkpt>
      <trkpt lat="45.76501" lon="4.90119">
        <ele>187</ele>
        <time>2014-02-27T18:23:47.1Z</time>
      </trkpt>
      <trkpt lat="45.76487" lon="4.9012">
        <ele>188</ele>
        <time>2014-02-27T18:23:50.1Z</time>
      </trkpt>
      <trkpt lat="45.76474" lon="4.90119">
        <ele>188</ele>
        <time>2014-02-27T18:23:53.1Z</time>
      </trkpt>
      <trkpt lat="45.76465" lon="4.90117">
        <ele>188</ele>
        <time>2014-02-27T18:23:55.1Z</time>
      </trkpt>
      <trkpt lat="45.76454" lon="4.90116">
        <ele>188</ele>
        <time>2014-02-27T18:23:58.1Z</time>
      </trkpt>
      <trkpt lat="45.76451" lon="4.90115">
        <ele>188</ele>
        <time>2014-02-27T18:24:00.1Z</time>
      </trkpt>
      <trkpt lat="45.7645" lon="4.90115">
        <ele>188</ele>
        <time>2014-02-27T18:24:03.1Z</time>
      </trkpt>
      <trkpt lat="45.76447" lon="4.90114">
        <ele>188</ele>
        <time>2014-02-27T18:24:06.1Z</time>
      </trkpt>
      <trkpt lat="45.76442" lon="4.90112">
        <ele>188</ele>
        <time>2014-02-27T18:24:08.1Z</time>
      </trkpt>
      <trkpt lat="45.7643" lon="4.90107">
        <ele>188</ele>
        <time>2014-02-27T18:24:11.1Z</time>
      </trkpt>
      <trkpt lat="45.76421" lon="4.90103">
        <ele>188</ele>
        <time>2014-02-27T18:24:13.1Z</time>
      </trkpt>
      <trkpt lat="45.76404" lon="4.90096">
        <ele>188</ele>
        <time>2014-02-27T18:24:16.1Z</time>
      </trkpt>
      <trkpt lat="45.76392" lon="4.90091">
        <ele>188</ele>
        <time>2014-02-27T18:24:18.1Z</time>
      </trkpt>
      <trkpt lat="45.76381" lon="4.90091">
        <ele>188</ele>
        <time>2014-02-27T18:24:20.1Z</time>
      </trkpt>
      <trkpt lat="45.76371" lon="4.90091">
        <ele>188</ele>
        <time>2014-02-27T18:24:23.1Z</time>
      </trkpt>
      <trkpt lat="45.76364" lon="4.90091">
        <ele>188</ele>
        <time>2014-02-27T18:24:26.1Z</time>
      </trkpt>
      <trkpt lat="45.76358" lon="4.90089">
        <ele>188</ele>
        <time>2014-02-27T18:24:28.1Z</time>
      </trkpt>
      <trkpt lat="45.76345" lon="4.90083">
        <ele>188</ele>
        <time>2014-02-27T18:24:31.1Z</time>
      </trkpt>
      <trkpt lat="45.76333" lon="4.90077">
        <ele>188</ele>
        <time>2014-02-27T18:24:34.1Z</time>
      </trkpt>
      <trkpt lat="45.76322" lon="4.9007">
        <ele>188</ele>
        <time>2014-02-27T18:24:37.1Z</time>
      </trkpt>
      <trkpt lat="45.76309" lon="4.90064">
        <ele>188</ele>
        <time>2014-02-27T18:24:40.1Z</time>
      </trkpt>
      <trkpt lat="45.76298" lon="4.90064">
        <ele>188</ele>
        <time>2014-02-27T18:24:42.1Z</time>
      </trkpt>
      <trkpt lat="45.76281" lon="4.90067">
        <ele>188</ele>
        <time>2014-02-27T18:24:45.1Z</time>
      </trkpt>
      <trkpt lat="45.76266" lon="4.90068">
        <ele>188</ele>
        <time>2014-02-27T18:24:48.1Z</time>
      </trkpt>
      <trkpt lat="45.76255" lon="4.90068">
        <ele>188</ele>
        <time>2014-02-27T18:24:50.1Z</time>
      </trkpt>
      <trkpt lat="45.76246" lon="4.90068">
        <ele>188</ele>
        <time>2014-02-27T18:24:52.1Z</time>
      </trkpt>
      <trkpt lat="45.76234" lon="4.90066">
        <ele>188</ele>
        <time>2014-02-27T18:24:55.1Z</time>
      </trkpt>
      <trkpt lat="45.76219" lon="4.90066">
        <ele>188</ele>
        <time>2014-02-27T18:24:58.1Z</time>
      </trkpt>
      <trkpt lat="45.76204" lon="4.90066">
        <ele>188</ele>
        <time>2014-02-27T18:25:01.1Z</time>
      </trkpt>
      <trkpt lat="45.76195" lon="4.90066">
        <ele>188</ele>
        <time>2014-02-27T18:25:03.1Z</time>
      </trkpt>
      <trkpt lat="45.76181" lon="4.90066">
        <ele>188</ele>
        <time>2014-02-27T18:25:06.1Z</time>
      </trkpt>
      <trkpt lat="45.76173" lon="4.90067">
        <ele>188</ele>
        <time>2014-02-27T18:25:08.1Z</time>
      </trkpt>
      <trkpt lat="45.7616" lon="4.90068">
        <ele>188</ele>
        <time>2014-02-27T18:25:11.1Z</time>
      </trkpt>
      <trkpt lat="45.76149" lon="4.90069">
        <ele>188</ele>
        <time>2014-02-27T18:25:14.1Z</time>
      </trkpt>
      <trkpt lat="45.76138" lon="4.9007">
        <ele>188</ele>
        <time>2014-02-27T18:25:17.1Z</time>
      </trkpt>
      <trkpt lat="45.76128" lon="4.90072">
        <ele>189</ele>
        <time>2014-02-27T18:25:20.1Z</time>
      </trkpt>
      <trkpt lat="45.76119" lon="4.90073">
        <ele>189</ele>
        <time>2014-02-27T18:25:22.1Z</time>
      </trkpt>
      <trkpt lat="45.76106" lon="4.90076">
        <ele>189</ele>
        <time>2014-02-27T18:25:25.1Z</time>
      </trkpt>
      <trkpt lat="45.76097" lon="4.90078">
        <ele>189</ele>
        <time>2014-02-27T18:25:27.1Z</time>
      </trkpt>
      <trkpt lat="45.76083" lon="4.90081">
        <ele>189</ele>
        <time>2014-02-27T18:25:30.1Z</time>
      </trkpt>
      <trkpt lat="45.76068" lon="4.90084">
        <ele>189</ele>
        <time>2014-02-27T18:25:33.1Z</time>
      </trkpt>
      <trkpt lat="45.76051" lon="4.90088">
        <ele>189</ele>
        <time>2014-02-27T18:25:36.1Z</time>
      </trkpt>
      <trkpt lat="45.76038" lon="4.90091">
        <ele>189</ele>
        <time>2014-02-27T18:25:38.1Z</time>
      </trkpt>
      <trkpt lat="45.76024" lon="4.90101">
        <ele>189</ele>
        <time>2014-02-27T18:25:41.1Z</time>
      </trkpt>
      <trkpt lat="45.76021" lon="4.90118">
        <ele>189</ele>
        <time>2014-02-27T18:25:43.1Z</time>
      </trkpt>
      <trkpt lat="45.76022" lon="4.90139">
        <ele>189</ele>
        <time>2014-02-27T18:25:45.1Z</time>
      </trkpt>
      <trkpt lat="45.76025" lon="4.90157">
        <ele>189</ele>
        <time>2014-02-27T18:25:47.1Z</time>
      </trkpt>
      <trkpt lat="45.76028" lon="4.90177">
        <ele>190</ele>
        <time>2014-02-27T18:25:50.1Z</time>
      </trkpt>
      <trkpt lat="45.7603" lon="4.90187">
        <ele>189</ele>
        <time>2014-02-27T18:25:53.1Z</time>
      </trkpt>
      <trkpt lat="45.76031" lon="4.90192">
        <ele>189</ele>
        <time>2014-02-27T18:25:56.1Z</time>
      </trkpt>
      <trkpt lat="45.76031" lon="4.90195">
        <ele>188</ele>
        <time>2014-02-27T18:25:58.1Z</time>
      </trkpt>
      <trkpt lat="45.76032" lon="4.90196">
        <ele>188</ele>
        <time>2014-02-27T18:26:01.1Z</time>
      </trkpt>
      <trkpt lat="45.76033" lon="4.90197">
        <ele>188</ele>
        <time>2014-02-27T18:26:05.1Z</time>
      </trkpt>
      <trkpt lat="45.76033" lon="4.90197">
        <ele>188</ele>
        <time>2014-02-27T18:26:07.1Z</time>
      </trkpt>
      <trkpt lat="45.76033" lon="4.90198">
        <ele>189</ele>
        <time>2014-02-27T18:26:10.1Z</time>
      </trkpt>
      <trkpt lat="45.76033" lon="4.90199">
        <ele>189</ele>
        <time>2014-02-27T18:26:13.1Z</time>
      </trkpt>
      <trkpt lat="45.76032" lon="4.902">
        <ele>188</ele>
        <time>2014-02-27T18:26:15.1Z</time>
      </trkpt>
      <trkpt lat="45.76031" lon="4.90202">
        <ele>188</ele>
        <time>2014-02-27T18:26:18.1Z</time>
      </trkpt>
      <trkpt lat="45.76033" lon="4.90205">
        <ele>188</ele>
        <time>2014-02-27T18:26:21.1Z</time>
      </trkpt>
      <trkpt lat="45.76035" lon="4.90204">
        <ele>188</ele>
        <time>2014-02-27T18:26:23.1Z</time>
      </trkpt>
      <trkpt lat="45.76036" lon="4.90196">
        <ele>189</ele>
        <time>2014-02-27T18:26:25.1Z</time>
      </trkpt>
      <trkpt lat="45.76034" lon="4.90172">
        <ele>189</ele>
        <time>2014-02-27T18:26:28.1Z</time>
      </trkpt>
      <trkpt lat="45.76033" lon="4.90156">
        <ele>189</ele>
        <time>2014-02-27T18:26:30.1Z</time>
      </trkpt>
      <trkpt lat="45.76031" lon="4.9014">
        <ele>189</ele>
        <time>2014-02-27T18:26:33.1Z</time>
      </trkpt>
      <trkpt lat="45.7603" lon="4.90131">
        <ele>189</ele>
        <time>2014-02-27T18:26:36.1Z</time>
      </trkpt>
      <trkpt lat="45.7603" lon="4.90129">
        <ele>189</ele>
        <time>2014-02-27T18:26:38.1Z</time>
      </trkpt>
      <trkpt lat="45.7603" lon="4.90127">
        <ele>188</ele>
        <time>2014-02-27T18:26:41.1Z</time>
      </trkpt>
      <trkpt lat="45.7603" lon="4.90126">
        <ele>189</ele>
        <time>2014-02-27T18:26:43.1Z</time>
      </trkpt>
      <trkpt lat="45.7603" lon="4.90124">
        <ele>189</ele>
        <time>2014-02-27T18:26:46.1Z</time>
      </trkpt>
      <trkpt lat="45.76031" lon="4.90123">
        <ele>189</ele>
        <time>2014-02-27T18:26:49.1Z</time>
      </trkpt>
      <trkpt lat="45.76031" lon="4.90121">
        <ele>189</ele>
        <time>2014-02-27T18:26:51.1Z</time>
      </trkpt>
      <trkpt lat="45.76032" lon="4.9012">
        <ele>189</ele>
        <time>2014-02-27T18:26:53.1Z</time>
      </trkpt>
      <trkpt lat="45.76032" lon="4.90118">
        <ele>189</ele>
        <time>2014-02-27T18:26:56.1Z</time>
      </trkpt>
      <trkpt lat="45.76032" lon="4.90117">
        <ele>189</ele>
        <time>2014-02-27T18:26:58.1Z</time>
      </trkpt>
      <trkpt lat="45.76033" lon="4.90116">
        <ele>189</ele>
        <time>2014-02-27T18:27:01.1Z</time>
      </trkpt>
      <trkpt lat="45.76032" lon="4.90117">
        <ele>188</ele>
        <time>2014-02-27T18:27:04.1Z</time>
      </trkpt>
      <trkpt lat="45.76033" lon="4.90108">
        <ele>188</ele>
        <time>2014-02-27T18:27:07.1Z</time>
      </trkpt>
      <trkpt lat="45.76033" lon="4.90091">
        <ele>188</ele>
        <time>2014-02-27T18:27:10.1Z</time>
      </trkpt>
      <trkpt lat="45.76035" lon="4.90079">
        <ele>188</ele>
        <time>2014-02-27T18:27:12.1Z</time>
      </trkpt>
      <trkpt lat="45.76038" lon="4.90068">
        <ele>188</ele>
        <time>2014-02-27T18:27:14.1Z</time>
      </trkpt>
      <trkpt lat="45.76052" lon="4.90058">
        <ele>188</ele>
        <time>2014-02-27T18:27:17.1Z</time>
      </trkpt>
      <trkpt lat="45.76066" lon="4.90058">
        <ele>188</ele>
        <time>2014-02-27T18:27:19.1Z</time>
      </trkpt>
      <trkpt lat="45.7608" lon="4.90058">
        <ele>188</ele>
        <time>2014-02-27T18:27:21.1Z</time>
      </trkpt>
      <trkpt lat="45.76103" lon="4.90058">
        <ele>188</ele>
        <time>2014-02-27T18:27:24.1Z</time>
      </trkpt>
      <trkpt lat="45.76126" lon="4.90057">
        <ele>188</ele>
        <time>2014-02-27T18:27:27.1Z</time>
      </trkpt>
      <trkpt lat="45.76146" lon="4.90056">
        <ele>188</ele>
        <time>2014-02-27T18:27:30.1Z</time>
      </trkpt>
      <trkpt lat="45.76146" lon="4.90056">
        <ele>188</ele>
        <time>2014-02-27T18:27:33.1Z</time>
      </trkpt>
    </trkseg>
  </trk>
</gpx>